Time;durP1;ratioP1;P1;durP2;ratioP2;P2;SDS_P1;SDS_P2;PMS_P1;PMS_P2;Temp;Humidity;BMP_temperature;BMP_pressure;BME280_temperature;BME280_humidity;BME280_pressure;Samples;Min_cycle;Max_cycle;Signal;HPM_P1;HPM_P2
2022/12/23 00:00:19;;;;;;;4.60;3.92;;;2.40;99.90;;;;;;5049620;28;20041;-54
2022/12/23 00:02:45;;;;;;;6.38;3.53;;;2.40;99.90;;;;;;5049731;28;20104;-55
2022/12/23 00:05:11;;;;;;;13.00;4.03;;;2.30;99.90;;;;;;5049483;28;20112;-52
2022/12/23 00:07:37;;;;;;;9.85;4.50;;;2.30;99.90;;;;;;5049542;28;20098;-49
2022/12/23 00:10:04;;;;;;;7.95;5.00;;;2.20;99.90;;;;;;5049622;28;20064;-52
2022/12/23 00:15:14;;;;;;;13.93;4.20;;;2.20;99.90;;;;;;5049314;28;20528;-52
2022/12/23 00:17:44;;;;;;;6.45;4.38;;;2.10;99.90;;;;;;5049579;28;20025;-51
2022/12/23 00:20:13;;;;;;;8.00;3.85;;;2.20;99.90;;;;;;5049354;28;20085;-52
2022/12/23 00:25:39;;;;;;;10.68;5.15;;;2.30;99.90;;;;;;5049342;28;20044;-50
2022/12/23 00:28:19;;;;;;;6.55;4.20;;;2.30;99.90;;;;;;5049354;28;20358;-53
2022/12/23 00:30:49;;;;;;;11.50;4.68;;;2.40;99.90;;;;;;5047880;28;20025;-52
2022/12/23 00:33:18;;;;;;;9.75;4.25;;;2.40;99.90;;;;;;5048929;28;20036;-53
2022/12/23 00:35:44;;;;;;;14.98;4.15;;;2.50;99.90;;;;;;5047741;28;20029;-54
2022/12/23 00:38:10;;;;;;;6.25;4.20;;;2.50;99.90;;;;;;5049010;28;20096;-53
2022/12/23 00:43:21;;;;;;;6.55;4.30;;;2.60;99.90;;;;;;5049267;28;20364;-51
2022/12/23 00:45:46;;;;;;;10.75;4.30;;;2.70;99.90;;;;;;5049083;28;20021;-52
2022/12/23 00:50:57;;;;;;;8.52;4.15;;;2.80;99.90;;;;;;5048836;28;20035;-51
2022/12/23 00:53:22;;;;;;;7.18;4.55;;;2.80;99.90;;;;;;5048777;28;20523;-52
2022/12/23 00:55:49;;;;;;;9.43;4.95;;;2.90;99.90;;;;;;5048911;28;20022;-54
2022/12/23 00:58:16;;;;;;;29.27;13.10;;;2.90;99.90;;;;;;5048785;28;20033;-51
2022/12/23 01:06:09;;;;;;;15.93;7.63;;;3.00;99.90;;;;;;5048669;28;20487;-53
2022/12/23 01:08:36;;;;;;;21.83;11.10;;;3.10;99.90;;;;;;5047569;28;20029;-52
2022/12/23 01:11:07;;;;;;;22.75;9.93;;;3.10;99.90;;;;;;5048551;28;20023;-51
2022/12/23 01:13:34;;;;;;;28.27;11.02;;;3.10;99.90;;;;;;5048681;28;20049;-52
2022/12/23 01:16:07;;;;;;;42.53;14.77;;;3.10;99.90;;;;;;5048513;28;20045;-53
2022/12/23 01:18:34;;;;;;;23.15;9.65;;;3.10;99.90;;;;;;5048523;28;20503;-54
2022/12/23 01:21:02;;;;;;;28.27;11.88;;;3.10;99.90;;;;;;5048577;28;20066;-51
2022/12/23 01:23:28;;;;;;;27.63;11.45;;;3.10;99.90;;;;;;5048310;28;20056;-50
2022/12/23 01:26:03;;;;;;;23.00;8.93;;;3.00;99.90;;;;;;5048509;28;20049;-51
2022/12/23 01:28:30;;;;;;;36.63;13.30;;;3.10;99.90;;;;;;5048342;28;20102;-51
2022/12/23 01:30:58;;;;;;;24.33;11.25;;;3.10;99.90;;;;;;5048227;28;20029;-49
2022/12/23 01:33:23;;;;;;;22.13;10.05;;;3.10;99.90;;;;;;5048511;28;20053;-55
2022/12/23 01:35:49;;;;;;;22.70;8.55;;;3.10;99.90;;;;;;5051999;28;20060;-51
2022/12/23 01:38:14;;;;;;;8.60;5.07;;;3.10;99.90;;;;;;5051800;28;20467;-54
2022/12/23 01:40:42;;;;;;;17.98;8.07;;;3.10;99.90;;;;;;5052013;28;20371;-53
2022/12/23 01:43:16;;;;;;;36.67;13.95;;;3.10;99.90;;;;;;5051634;28;20090;-53
2022/12/23 01:45:41;;;;;;;;;;;3.10;99.90;;;;;;5052462;28;20033;-51
2022/12/23 01:48:20;;;;;;;31.60;10.60;;;3.20;99.90;;;;;;5051710;28;20023;-52
2022/12/23 01:50:55;;;;;;;37.40;12.52;;;3.20;99.90;;;;;;5051777;28;20023;-51
2022/12/23 01:53:29;;;;;;;24.20;10.65;;;3.20;99.90;;;;;;5051640;28;20033;-52
2022/12/23 01:56:00;;;;;;;24.00;9.88;;;3.10;99.90;;;;;;5051820;28;20432;-53
2022/12/23 01:58:29;;;;;;;26.02;8.57;;;3.10;99.90;;;;;;5051565;28;20025;-50
2022/12/23 02:03:41;;;;;;;19.48;9.00;;;3.10;99.90;;;;;;5051599;28;20036;-54
2022/12/23 02:09:23;;;;;;;10.90;6.47;;;3.30;99.90;;;;;;5027942;28;20128;-52
2022/12/23 02:12:20;;;;;;;16.42;6.10;;;3.40;99.90;;;;;;5051230;28;20161;-50
2022/12/23 02:18:07;;;;;;;23.23;8.57;;;3.30;99.90;;;;;;5051409;28;20126;-53
2022/12/23 02:20:44;;;;;;;16.17;6.47;;;3.30;99.90;;;;;;5051327;28;20623;-55
2022/12/23 02:23:38;;;;;;;15.32;6.53;;;3.30;99.90;;;;;;5051226;28;20040;-50
2022/12/23 02:26:27;;;;;;;15.35;6.35;;;3.30;99.90;;;;;;5051147;28;20109;-52
2022/12/23 02:29:21;;;;;;;13.40;5.85;;;3.30;99.90;;;;;;5019896;28;20037;-52
2022/12/23 02:31:52;;;;;;;14.10;6.40;;;3.30;99.90;;;;;;5051051;28;20069;-49
2022/12/23 02:34:19;;;;;;;15.05;6.07;;;3.40;99.90;;;;;;5049620;28;20328;-52
2022/12/23 02:36:45;;;;;;;9.95;5.60;;;3.40;99.90;;;;;;5051050;28;20021;-52
2022/12/23 02:39:34;;;;;;;13.27;6.97;;;3.40;99.90;;;;;;5050965;28;20073;-53
2022/12/23 02:42:15;;;;;;;8.27;5.38;;;3.40;99.90;;;;;;5050965;28;20029;-51
2022/12/23 02:44:47;;;;;;;8.75;5.65;;;3.40;99.90;;;;;;5050455;28;20052;-50
2022/12/23 02:47:23;;;;;;;12.15;6.10;;;3.50;99.90;;;;;;5050169;28;20021;-52
2022/12/23 02:49:55;;;;;;;15.20;5.85;;;3.50;99.90;;;;;;5050849;28;20043;-54
2022/12/23 02:52:28;;;;;;;13.10;5.18;;;3.50;99.90;;;;;;5050600;28;20388;-54
2022/12/23 02:55:00;;;;;;;18.42;5.95;;;3.50;99.90;;;;;;5050777;28;20013;-52
2022/12/23 02:57:31;;;;;;;17.42;5.47;;;3.50;99.90;;;;;;5050284;28;20032;-54
2022/12/23 02:59:58;;;;;;;8.10;5.18;;;3.50;99.90;;;;;;5049999;28;20026;-51
2022/12/23 03:02:24;;;;;;;8.18;4.72;;;3.50;99.90;;;;;;5049804;28;20029;-55
2022/12/23 03:04:50;;;;;;;8.20;4.90;;;3.60;99.90;;;;;;5050263;28;20162;-49
2022/12/23 03:07:48;;;;;;;13.55;4.97;;;3.60;99.90;;;;;;5049434;28;20065;-49
2022/12/23 03:10:58;;;;;;;8.60;5.13;;;3.60;99.90;;;;;;5015737;28;20072;-56
2022/12/23 03:13:51;;;;;;;11.85;6.72;;;3.50;99.90;;;;;;5049004;28;20475;-50
2022/12/23 03:16:31;;;;;;;13.35;5.55;;;3.50;99.90;;;;;;5050251;28;20039;-54
2022/12/23 03:19:24;;;;;;;10.68;5.47;;;3.50;99.90;;;;;;5048980;28;20029;-52
2022/12/23 03:22:11;;;;;;;12.83;6.43;;;3.40;99.90;;;;;;5050460;28;20021;-53
2022/12/23 03:24:54;;;;;;;18.92;7.30;;;3.40;99.90;;;;;;5050308;28;20034;-53
2022/12/23 03:27:48;;;;;;;14.00;7.68;;;3.40;99.90;;;;;;5050086;28;20029;-52
2022/12/23 03:30:16;;;;;;;17.67;10.00;;;3.50;99.90;;;;;;5050083;28;20017;-56
2022/12/23 03:32:52;;;;;;;35.55;19.08;;;3.50;99.90;;;;;;5048606;28;20021;-53
2022/12/23 03:35:23;;;;;;;12.30;6.28;;;3.50;99.90;;;;;;5048677;28;20464;-52
2022/12/23 03:37:52;;;;;;;11.52;5.82;;;3.50;99.90;;;;;;5050043;28;20361;-53
2022/12/23 03:40:38;;;;;;;6.80;5.22;;;3.50;99.90;;;;;;5050005;28;20376;-53
2022/12/23 03:43:10;;;;;;;6.88;5.28;;;3.50;99.90;;;;;;5049902;28;20028;-52
2022/12/23 03:45:43;;;;;;;9.07;6.45;;;3.60;99.90;;;;;;5050061;28;20032;-55
2022/12/23 03:48:14;;;;;;;16.20;11.80;;;3.60;99.90;;;;;;5049793;28;20108;-54
2022/12/23 03:50:41;;;;;;;14.23;9.27;;;3.60;99.90;;;;;;5049810;28;20029;-53
2022/12/23 03:53:34;;;;;;;14.25;8.75;;;3.60;99.90;;;;;;5049780;28;20108;-51
2022/12/23 03:56:11;;;;;;;14.15;8.35;;;3.60;99.90;;;;;;5048517;28;20027;-51
2022/12/23 03:58:48;;;;;;;10.35;6.97;;;3.60;99.90;;;;;;5049793;28;20027;-53
2022/12/23 04:01:32;;;;;;;9.80;6.85;;;3.70;99.90;;;;;;5049395;28;20429;-51
2022/12/23 04:04:54;;;;;;;9.95;7.47;;;3.80;99.90;;;;;;5049663;28;20410;-54
2022/12/23 04:07:29;;;;;;;7.60;5.95;;;3.70;99.90;;;;;;4987739;28;20024;-53
2022/12/23 04:09:56;;;;;;;10.77;6.18;;;3.80;99.90;;;;;;4987942;28;20037;-51
2022/12/23 04:12:23;;;;;;;7.07;4.97;;;3.80;99.90;;;;;;5020507;28;20039;-52
2022/12/23 04:14:50;;;;;;;7.43;5.18;;;3.80;99.90;;;;;;5049556;28;20029;-54
2022/12/23 04:17:17;;;;;;;4.88;4.38;;;3.90;99.90;;;;;;5049144;28;20025;-55
2022/12/23 04:19:47;;;;;;;12.05;7.25;;;4.00;99.90;;;;;;5049420;28;20029;-52
2022/12/23 04:22:14;;;;;;;10.02;5.68;;;4.00;99.90;;;;;;5049252;28;20025;-50
2022/12/23 04:24:41;;;;;;;6.30;5.70;;;3.90;99.90;;;;;;5049297;28;20025;-53
2022/12/23 04:27:08;;;;;;;7.13;5.22;;;3.90;99.90;;;;;;5049252;28;20048;-54
2022/12/23 04:29:34;;;;;;;8.30;5.68;;;3.90;99.90;;;;;;5048132;28;20093;-55
2022/12/23 04:31:59;;;;;;;7.15;6.28;;;3.90;99.90;;;;;;5047852;28;20024;-52
2022/12/23 04:34:25;;;;;;;5.20;4.13;;;3.90;99.90;;;;;;5049063;28;20348;-56
2022/12/23 04:36:51;;;;;;;8.63;4.82;;;3.90;99.90;;;;;;5049270;28;20029;-55
2022/12/23 04:39:16;;;;;;;5.05;4.65;;;4.00;99.90;;;;;;5048917;28;20077;-53
2022/12/23 04:41:42;;;;;;;5.88;4.88;;;3.90;99.90;;;;;;5049082;28;20025;-53
2022/12/23 04:44:08;;;;;;;8.98;5.50;;;3.90;99.90;;;;;;5047810;28;20052;-55
2022/12/23 04:46:33;;;;;;;10.32;5.72;;;4.00;99.90;;;;;;5049031;28;20716;-53
2022/12/23 04:48:59;;;;;;;19.48;5.50;;;3.90;99.90;;;;;;5049097;28;20021;-52
2022/12/23 04:51:25;;;;;;;76.80;7.43;;;3.80;99.90;;;;;;5048798;28;20060;-55
2022/12/23 04:53:51;;;;;;;60.15;5.93;;;3.90;99.90;;;;;;5048835;28;20104;-52
2022/12/23 04:56:16;;;;;;;206.45;11.40;;;3.80;99.90;;;;;;5048751;28;20464;-55
2022/12/23 04:58:42;;;;;;;131.02;8.95;;;3.90;99.90;;;;;;5048873;28;20104;-54
2022/12/23 05:01:09;;;;;;;5.72;4.85;;;3.80;99.90;;;;;;5048668;28;20053;-52
2022/12/23 05:03:36;;;;;;;6.72;5.30;;;3.90;99.90;;;;;;5048768;28;20028;-52
2022/12/23 05:06:03;;;;;;;4.00;3.60;;;3.90;99.90;;;;;;5048824;28;20612;-51
2022/12/23 05:08:28;;;;;;;5.55;4.40;;;3.90;99.90;;;;;;5047670;28;20025;-54
2022/12/23 05:10:54;;;;;;;11.30;5.10;;;4.00;99.90;;;;;;5048705;28;20025;-55
2022/12/23 05:13:20;;;;;;;4.28;3.60;;;4.00;99.90;;;;;;5048144;28;20037;-51
2022/12/23 05:15:49;;;;;;;4.75;4.30;;;4.00;99.90;;;;;;5048486;28;20021;-51
2022/12/23 05:18:18;;;;;;;4.70;4.20;;;4.10;99.90;;;;;;5047203;28;20103;-51
2022/12/23 05:20:44;;;;;;;5.15;3.90;;;4.10;99.90;;;;;;5048571;28;20056;-50
2022/12/23 05:23:09;;;;;;;4.88;4.32;;;4.20;99.90;;;;;;5048370;28;20072;-50
2022/12/23 05:25:36;;;;;;;5.75;5.05;;;4.20;99.90;;;;;;5048582;28;20032;-55
2022/12/23 05:28:03;;;;;;;12.45;5.47;;;4.20;99.90;;;;;;5048464;28;20091;-52
2022/12/23 05:30:29;;;;;;;11.50;5.38;;;4.30;99.90;;;;;;5048290;28;20496;-55
2022/12/23 05:32:55;;;;;;;5.82;4.80;;;4.30;99.90;;;;;;5048283;28;20104;-55
2022/12/23 05:35:23;;;;;;;6.55;5.22;;;4.50;99.90;;;;;;5048294;28;20418;-52
2022/12/23 05:37:48;;;;;;;7.72;5.72;;;4.70;99.90;;;;;;5048364;28;20028;-56
2022/12/23 05:40:15;;;;;;;19.67;11.05;;;4.70;99.90;;;;;;5048129;28;20017;-52
2022/12/23 05:42:41;;;;;;;7.85;5.32;;;4.80;99.90;;;;;;5048185;28;20029;-51
2022/12/23 05:45:07;;;;;;;6.88;5.22;;;4.90;99.90;;;;;;5048268;28;20053;-56
2022/12/23 05:47:33;;;;;;;7.30;5.03;;;4.90;99.90;;;;;;5048199;28;20033;-50
2022/12/23 05:49:59;;;;;;;16.67;4.78;;;4.90;99.90;;;;;;5048045;28;20039;-55
2022/12/23 05:52:24;;;;;;;20.25;8.23;;;5.00;99.90;;;;;;5047991;28;20028;-52
2022/12/23 05:54:50;;;;;;;7.97;7.18;;;4.90;99.90;;;;;;5048235;28;20036;-52
2022/12/23 05:57:16;;;;;;;10.15;5.80;;;4.90;99.90;;;;;;5047879;28;20104;-53
2022/12/23 05:59:42;;;;;;;50.08;6.68;;;5.00;99.90;;;;;;5047695;28;20400;-53
2022/12/23 06:02:07;;;;;;;59.33;8.07;;;5.00;99.90;;;;;;5044355;28;20096;-51
2022/12/23 06:04:33;;;;;;;5.15;4.75;;;4.90;99.90;;;;;;5045330;28;20028;-52
2022/12/23 06:06:59;;;;;;;6.35;4.82;;;5.10;99.90;;;;;;5046021;28;20067;-54
2022/12/23 06:09:24;;;;;;;5.15;4.75;;;5.20;99.90;;;;;;5045982;28;20021;-52
2022/12/23 06:11:50;;;;;;;6.88;4.70;;;5.30;99.90;;;;;;5046760;28;20041;-54
2022/12/23 06:14:16;;;;;;;4.93;4.43;;;5.40;99.90;;;;;;5047344;28;20029;-53
2022/12/23 06:16:41;;;;;;;3.80;3.50;;;5.70;99.90;;;;;;5048070;28;20077;-56
2022/12/23 06:19:07;;;;;;;5.13;3.70;;;5.70;99.90;;;;;;5047387;28;20021;-52
2022/12/23 06:21:33;;;;;;;10.02;7.88;;;5.90;99.90;;;;;;5051067;28;20025;-51
2022/12/23 06:23:59;;;;;;;3.85;3.53;;;6.00;99.90;;;;;;5051033;28;20508;-48
2022/12/23 06:26:25;;;;;;;5.53;4.82;;;6.10;99.90;;;;;;5050820;28;20080;-55
2022/12/23 06:28:50;;;;;;;5.68;4.47;;;6.30;99.90;;;;;;5050777;28;20457;-51
2022/12/23 06:31:16;;;;;;;4.65;4.18;;;6.30;99.90;;;;;;5050718;28;20108;-53
2022/12/23 06:33:42;;;;;;;4.72;3.85;;;6.30;99.90;;;;;;5049704;28;20057;-50
2022/12/23 06:36:08;;;;;;;5.35;4.00;;;6.30;99.90;;;;;;5050565;28;20104;-52
2022/12/23 06:38:33;;;;;;;4.80;3.40;;;6.30;99.90;;;;;;5050550;27;20041;-52
2022/12/23 06:40:59;;;;;;;2.95;2.70;;;6.40;99.90;;;;;;5050836;28;20055;-51
2022/12/23 06:43:25;;;;;;;16.98;11.40;;;6.50;99.90;;;;;;5050696;28;20025;-50
2022/12/23 06:45:51;;;;;;;3.50;3.20;;;6.50;99.90;;;;;;5050400;28;20029;-52
2022/12/23 06:48:17;;;;;;;4.63;4.18;;;6.60;99.90;;;;;;5050604;28;20431;-53
2022/12/23 06:50:43;;;;;;;5.72;4.05;;;6.70;99.90;;;;;;5049929;28;20033;-53
2022/12/23 06:53:09;;;;;;;5.13;3.38;;;6.90;99.90;;;;;;5049297;28;20123;-53
2022/12/23 06:55:34;;;;;;;4.50;4.07;;;7.00;99.90;;;;;;5049141;28;20021;-51
2022/12/23 06:58:00;;;;;;;3.58;2.88;;;7.00;99.90;;;;;;5049233;28;20029;-51
2022/12/23 07:00:26;;;;;;;3.47;3.17;;;7.00;99.90;;;;;;5049378;28;20037;-53
2022/12/23 07:02:54;;;;;;;3.40;3.03;;;7.00;99.90;;;;;;5048669;28;20037;-51
2022/12/23 07:05:20;;;;;;;2.50;2.30;;;7.10;99.90;;;;;;5049234;28;20032;-51
2022/12/23 07:07:46;;;;;;;3.05;2.40;;;7.20;99.90;;;;;;5048794;28;20544;-50
2022/12/23 07:10:12;;;;;;;2.10;1.90;;;7.30;99.90;;;;;;5047694;28;20223;-49
2022/12/23 07:12:37;;;;;;;2.10;2.00;;;7.40;99.90;;;;;;5048812;28;20369;-53
2022/12/23 07:15:04;;;;;;;2.45;2.25;;;7.40;99.90;;;;;;5049070;28;20288;-55
2022/12/23 07:17:30;;;;;;;2.35;2.15;;;7.40;99.90;;;;;;5048799;28;20477;-51
2022/12/23 07:19:56;;;;;;;2.00;1.90;;;7.40;99.90;;;;;;5048378;28;20021;-54
2022/12/23 07:22:21;;;;;;;3.90;2.30;;;7.60;99.90;;;;;;5048994;28;20067;-52
2022/12/23 07:24:47;;;;;;;2.35;2.00;;;7.70;99.90;;;;;;5048791;28;20033;-52
2022/12/23 07:27:13;;;;;;;2.20;2.00;;;7.60;99.90;;;;;;5047696;28;20029;-55
2022/12/23 07:29:38;;;;;;;3.53;2.13;;;7.70;99.90;;;;;;5048814;28;20040;-49
2022/12/23 07:32:04;;;;;;;2.13;1.80;;;7.70;99.90;;;;;;5048048;28;20058;-52
2022/12/23 07:34:30;;;;;;;2.30;2.17;;;7.80;99.90;;;;;;5048836;28;20021;-52
2022/12/23 07:36:55;;;;;;;1.67;1.58;;;7.80;99.90;;;;;;5048276;28;20080;-52
2022/12/23 07:39:21;;;;;;;2.30;1.98;;;7.80;99.90;;;;;;5048631;28;20021;-54
2022/12/23 07:41:47;;;;;;;4.20;1.98;;;7.90;99.90;;;;;;5048631;28;20028;-53
2022/12/23 07:44:13;;;;;;;7.20;1.98;;;8.00;99.90;;;;;;5048472;28;20033;-52
2022/12/23 07:46:39;;;;;;;4.80;2.05;;;8.00;99.90;;;;;;5048478;28;20029;-55
2022/12/23 07:49:04;;;;;;;3.28;2.15;;;7.90;99.90;;;;;;5048439;28;20059;-53
2022/12/23 07:51:31;;;;;;;1.75;1.65;;;8.10;99.90;;;;;;5048373;28;20016;-50
2022/12/23 07:53:59;;;;;;;2.13;2.00;;;8.10;99.90;;;;;;5048126;28;20022;-55
2022/12/23 07:56:25;;;;;;;1.73;1.63;;;8.10;99.90;;;;;;5048224;28;20471;-53
2022/12/23 07:58:52;;;;;;;2.40;2.20;;;8.10;99.90;;;;;;5048103;28;20049;-52
2022/12/23 08:01:18;;;;;;;2.10;1.90;;;8.10;99.90;;;;;;5048216;28;20017;-48
2022/12/23 08:03:44;;;;;;;2.20;2.00;;;8.20;99.90;;;;;;5048130;28;20032;-50
2022/12/23 08:06:12;;;;;;;2.55;2.22;;;8.10;99.90;;;;;;5048329;28;20032;-50
2022/12/23 08:08:39;;;;;;;2.38;2.00;;;8.10;99.90;;;;;;5048115;28;20056;-51
2022/12/23 08:11:06;;;;;;;2.72;2.30;;;8.20;99.90;;;;;;5048249;28;20036;-54
2022/12/23 08:13:35;;;;;;;2.83;1.80;;;8.20;99.90;;;;;;5047198;28;20518;-52
2022/12/23 08:16:02;;;;;;;3.33;2.30;;;8.30;99.90;;;;;;5048074;28;20049;-51
2022/12/23 08:18:30;;;;;;;2.78;2.15;;;8.30;99.90;;;;;;5047917;28;20069;-52
2022/12/23 08:21:22;;;;;;;2.00;1.90;;;8.40;99.90;;;;;;5047879;28;20028;-52
2022/12/23 08:23:48;;;;;;;10.88;4.15;;;8.50;99.90;;;;;;5046607;28;20392;-51
2022/12/23 08:26:17;;;;;;;2.63;2.38;;;8.50;99.90;;;;;;5047875;28;20029;-51
2022/12/23 08:28:43;;;;;;;4.70;2.83;;;8.50;99.90;;;;;;5047423;28;20040;-54
2022/12/23 08:31:20;;;;;;;1.67;1.55;;;8.60;99.90;;;;;;5046547;28;20036;-52
2022/12/23 08:33:48;;;;;;;5.97;4.88;;;8.70;99.90;;;;;;5047681;28;20025;-54
2022/12/23 08:36:17;;;;;;;6.35;4.57;;;8.70;99.90;;;;;;5047894;28;20408;-53
2022/12/23 08:38:44;;;;;;;3.10;2.38;;;8.70;99.90;;;;;;5047607;28;20447;-53
2022/12/23 08:41:12;;;;;;;1.77;1.67;;;8.80;99.90;;;;;;5047619;28;20495;-49
2022/12/23 08:43:38;;;;;;;2.95;2.10;;;8.90;99.90;;;;;;5046427;28;20060;-53
2022/12/23 08:46:04;;;;;;;2.28;1.83;;;9.10;99.90;;;;;;5046968;28;20025;-53
2022/12/23 08:48:33;;;;;;;4.07;2.28;;;9.10;99.90;;;;;;5047294;28;20021;-52
2022/12/23 08:51:04;;;;;;;3.28;2.92;;;9.10;99.90;;;;;;5047087;28;20113;-54
2022/12/23 08:53:29;;;;;;;2.80;2.40;;;9.10;99.90;;;;;;5047084;28;20087;-51
2022/12/23 08:55:55;;;;;;;3.35;3.05;;;9.10;99.90;;;;;;5047399;28;20499;-55
2022/12/23 08:58:20;;;;;;;2.17;2.03;;;9.00;99.90;;;;;;5046232;28;20036;-53
2022/12/23 09:00:46;;;;;;;2.50;2.30;;;9.10;99.90;;;;;;5047131;28;20036;-50
2022/12/23 09:03:12;;;;;;;2.00;1.90;;;9.10;99.90;;;;;;5047104;28;20051;-55
2022/12/23 09:05:41;;;;;;;2.08;1.88;;;9.10;99.90;;;;;;5046772;28;20497;-52
2022/12/23 09:08:08;;;;;;;5.32;3.28;;;9.20;99.90;;;;;;5047136;28;20025;-53
2022/12/23 09:10:39;;;;;;;17.48;8.60;;;9.20;99.90;;;;;;5047360;28;20025;-54
2022/12/23 09:13:04;;;;;;;2.78;2.42;;;9.20;99.90;;;;;;5046910;28;20056;-55
2022/12/23 09:15:30;;;;;;;2.28;2.10;;;9.30;99.90;;;;;;5046924;28;20029;-52
2022/12/23 09:17:56;;;;;;;2.28;2.13;;;9.40;99.90;;;;;;5046912;28;20490;-50
2022/12/23 09:20:21;;;;;;;1.80;1.70;;;9.40;99.90;;;;;;5046962;28;20021;-52
2022/12/23 09:22:47;;;;;;;1.80;1.70;;;9.50;99.90;;;;;;5046478;28;20033;-54
2022/12/23 09:25:14;;;;;;;2.25;2.15;;;9.50;99.90;;;;;;5047191;28;20089;-54
2022/12/23 09:27:40;;;;;;;2.22;2.03;;;9.60;99.90;;;;;;5047058;28;20032;-52
2022/12/23 09:30:06;;;;;;;2.08;1.90;;;9.60;99.90;;;;;;5046977;28;20462;-52
2022/12/23 09:32:32;;;;;;;2.60;2.40;;;9.60;99.90;;;;;;5046723;28;20032;-54
2022/12/23 09:34:57;;;;;;;2.05;1.95;;;9.70;99.90;;;;;;5046905;28;20422;-51
2022/12/23 09:37:23;;;;;;;2.15;2.05;;;9.70;99.90;;;;;;5046852;28;20029;-52
2022/12/23 09:39:48;;;;;;;2.50;2.30;;;9.70;99.90;;;;;;5046597;28;20062;-49
2022/12/23 09:42:45;;;;;;;4.45;2.10;;;9.70;99.90;;;;;;5046928;28;20318;-50
2022/12/23 09:45:35;;;;;;;11.68;6.47;;;9.70;99.90;;;;;;5047008;28;20056;-54
2022/12/23 09:48:02;;;;;;;4.05;3.65;;;9.70;99.90;;;;;;5046926;28;20024;-53
2022/12/23 09:50:30;;;;;;;2.75;2.55;;;9.60;99.90;;;;;;5046549;28;20118;-54
2022/12/23 09:52:59;;;;;;;3.65;2.70;;;9.70;99.90;;;;;;5046617;28;20032;-50
2022/12/23 09:55:47;;;;;;;2.20;2.00;;;9.70;99.90;;;;;;5048095;28;20100;-52
2022/12/23 09:58:41;;;;;;;2.20;2.10;;;9.60;99.90;;;;;;5050232;28;20017;-53
2022/12/23 10:01:29;;;;;;;2.20;2.10;;;9.60;99.90;;;;;;5048719;28;20116;-55
2022/12/23 10:04:28;;;;;;;2.75;2.55;;;9.60;99.90;;;;;;5050282;28;20028;-50
2022/12/23 10:07:03;;;;;;;2.75;2.55;;;9.50;99.90;;;;;;5048821;28;20032;-50
2022/12/23 10:09:36;;;;;;;3.63;2.13;;;9.50;99.90;;;;;;5050147;28;20082;-52
2022/12/23 10:12:15;;;;;;;9.23;4.75;;;9.70;99.90;;;;;;5048816;28;20112;-52
2022/12/23 10:14:42;;;;;;;4.80;3.22;;;9.70;99.90;;;;;;5047562;28;20435;-49
2022/12/23 10:17:14;;;;;;;2.70;2.22;;;9.90;99.90;;;;;;5091173;27;20145;-53
2022/12/23 10:19:46;;;;;;;2.60;2.43;;;10.20;99.90;;;;;;5153730;27;20125;-54
2022/12/23 10:22:18;;;;;;;2.42;2.22;;;10.40;99.90;;;;;;5154326;27;20046;-55
2022/12/23 10:24:45;;;;;;;2.15;1.95;;;10.60;99.90;;;;;;5154885;27;20027;-50
2022/12/23 10:27:30;;;;;;;2.15;1.80;;;10.90;99.90;;;;;;5153863;27;20023;-53
2022/12/23 10:30:19;;;;;;;3.20;2.00;;;11.20;99.90;;;;;;5150584;27;20029;-51
2022/12/23 10:33:26;;;;;;;2.42;1.70;;;11.30;99.90;;;;;;5029361;28;20033;-50
2022/12/23 10:36:08;;;;;;;2.10;2.00;;;11.20;99.90;;;;;;5028930;28;20029;-49
2022/12/23 10:39:00;;;;;;;21.38;11.75;;;11.10;99.90;;;;;;5029537;28;20179;-51
2022/12/23 10:41:36;;;;;;;1.80;1.70;;;10.80;99.90;;;;;;5022637;28;20135;-55
2022/12/23 10:44:36;;;;;;;2.40;1.90;;;10.80;99.90;;;;;;5018948;28;20030;-51
2022/12/23 10:47:14;;;;;;;2.08;1.88;;;10.80;99.90;;;;;;5020226;28;20046;-51
2022/12/23 10:49:52;;;;;;;2.45;2.00;;;10.70;99.90;;;;;;5018056;28;20026;-52
2022/12/23 10:52:24;;;;;;;3.10;1.90;;;10.70;99.90;;;;;;5018157;28;20107;-54
2022/12/23 10:54:50;;;;;;;3.95;3.25;;;10.70;99.90;;;;;;5018582;28;20029;-54
2022/12/23 10:57:18;;;;;;;3.65;3.35;;;10.40;99.90;;;;;;5018670;28;20036;-54
2022/12/23 10:59:44;;;;;;;5.05;2.55;;;10.40;99.90;;;;;;5018574;28;20070;-53
2022/12/23 11:02:12;;;;;;;2.20;2.00;;;10.40;99.90;;;;;;5017173;28;20099;-53
2022/12/23 11:04:42;;;;;;;25.92;20.40;;;10.40;99.90;;;;;;5018570;28;20033;-54
2022/12/23 11:07:12;;;;;;;3.45;3.15;;;10.20;99.90;;;;;;5016814;28;20109;-53
2022/12/23 11:09:42;;;;;;;5.70;3.35;;;10.20;99.90;;;;;;5018479;28;20034;-55
2022/12/23 11:12:12;;;;;;;2.15;1.95;;;10.10;99.90;;;;;;5035680;28;20117;-54
2022/12/23 11:14:48;;;;;;;5.85;3.40;;;10.10;99.90;;;;;;5037823;27;20488;-52
2022/12/23 11:17:24;;;;;;;2.08;1.98;;;10.00;99.90;;;;;;5033371;27;20236;-55
2022/12/23 11:20:05;;;;;;;3.45;2.47;;;10.10;99.90;;;;;;5017519;28;20500;-56
2022/12/23 11:22:30;;;;;;;4.03;2.65;;;10.00;99.90;;;;;;5019173;28;20124;-53
2022/12/23 11:25:26;;;;;;;2.60;2.25;;;10.10;99.90;;;;;;5017406;28;20178;-54
2022/12/23 11:28:02;;;;;;;2.03;1.90;;;10.20;99.90;;;;;;5018110;28;20041;-55
2022/12/23 11:30:30;;;;;;;1.83;1.73;;;10.40;99.90;;;;;;5017162;28;20034;-51
2022/12/23 11:32:57;;;;;;;3.55;3.20;;;10.20;99.90;;;;;;5017098;28;20048;-53
2022/12/23 11:35:31;;;;;;;3.78;2.75;;;10.10;99.90;;;;;;5017570;28;20369;-54
2022/12/23 11:37:59;;;;;;;3.28;2.63;;;10.10;99.90;;;;;;5017069;28;20105;-55
2022/12/23 11:40:35;;;;;;;2.60;2.40;;;10.00;99.90;;;;;;5017402;28;20037;-54
2022/12/23 11:43:11;;;;;;;4.47;2.88;;;10.00;99.90;;;;;;5017337;28;20080;-53
2022/12/23 11:45:37;;;;;;;4.15;3.50;;;9.90;99.90;;;;;;5018960;28;20059;-51
2022/12/23 11:48:04;;;;;;;2.70;2.45;;;10.00;99.90;;;;;;5018880;28;20033;-52
2022/12/23 11:50:36;;;;;;;2.78;1.85;;;10.00;99.90;;;;;;5019335;28;20045;-56
2022/12/23 11:53:13;;;;;;;3.38;2.92;;;10.00;99.90;;;;;;5018506;28;20044;-56
2022/12/23 11:55:58;;;;;;;22.13;18.23;;;9.90;99.90;;;;;;5019030;28;20022;-52
2022/12/23 11:58:25;;;;;;;17.65;14.57;;;9.80;99.90;;;;;;5017474;28;20417;-54
2022/12/23 12:00:59;;;;;;;3.83;3.47;;;9.80;99.90;;;;;;5018597;28;20013;-49
2022/12/23 12:03:32;;;;;;;7.03;5.95;;;9.80;99.90;;;;;;5018205;28;20993;-54
2022/12/23 12:06:05;;;;;;;4.50;2.10;;;9.70;99.90;;;;;;5019138;28;20034;-55
2022/12/23 12:08:38;;;;;;;1.90;1.80;;;9.70;99.90;;;;;;5019138;28;22535;-53
2022/12/23 12:11:10;;;;;;;2.00;1.90;;;9.80;99.90;;;;;;5016786;28;20037;-53
2022/12/23 12:13:41;;;;;;;2.30;1.80;;;9.80;99.90;;;;;;5017641;28;20041;-51
2022/12/23 12:16:29;;;;;;;1.60;1.50;;;9.80;99.90;;;;;;5019780;28;20026;-52
2022/12/23 12:19:01;;;;;;;2.20;2.00;;;9.80;99.90;;;;;;5017862;28;20390;-52
2022/12/23 12:21:32;;;;;;;1.90;1.73;;;9.80;99.90;;;;;;5018923;28;20449;-49
2022/12/23 12:24:11;;;;;;;2.10;1.75;;;9.70;99.90;;;;;;5018403;28;20074;-51
2022/12/23 12:26:37;;;;;;;2.80;2.53;;;9.70;99.90;;;;;;5018136;28;20044;-56
2022/12/23 12:29:56;;;;;;;2.38;2.17;;;9.70;99.90;;;;;;5018821;28;20127;-55
2022/12/23 12:32:42;;;;;;;116.15;39.22;;;9.80;99.90;;;;;;4945418;28;20039;-51
2022/12/23 12:35:41;;;;;;;30.50;10.60;;;9.70;99.90;;;;;;5018614;28;20029;-53
2022/12/23 12:38:29;;;;;;;4.80;3.55;;;9.60;99.90;;;;;;5038073;28;20108;-57
2022/12/23 12:41:00;;;;;;;4.78;2.80;;;9.60;99.90;;;;;;5037494;28;20037;-55
2022/12/23 12:43:31;;;;;;;7.30;3.33;;;9.60;99.90;;;;;;5038473;28;20086;-56
2022/12/23 12:46:21;;;;;;;4.55;3.35;;;9.60;99.90;;;;;;5037922;28;20379;-55
2022/12/23 12:49:15;;;;;;;4.85;4.05;;;9.60;99.90;;;;;;5035776;28;20369;-53
2022/12/23 12:51:55;;;;;;;11.30;8.32;;;9.70;99.90;;;;;;5018515;28;20029;-57
2022/12/23 12:54:38;;;;;;;30.67;17.65;;;9.70;99.90;;;;;;5026844;28;20057;-52
2022/12/23 12:57:04;;;;;;;9.13;6.23;;;9.80;99.90;;;;;;5028345;28;20033;-52
2022/12/23 12:59:38;;;;;;;53.13;28.05;;;9.80;99.90;;;;;;5027995;28;20268;-52
2022/12/23 13:02:26;;;;;;;7.18;3.78;;;9.80;99.90;;;;;;5026521;28;20366;-51
2022/12/23 13:05:13;;;;;;;1.75;1.60;;;9.80;99.90;;;;;;5027893;28;20090;-52
2022/12/23 13:07:53;;;;;;;19.05;8.88;;;9.90;99.90;;;;;;5028660;28;20381;-53
2022/12/23 13:10:43;;;;;;;4.25;2.33;;;9.80;99.90;;;;;;5028439;28;20027;-54
2022/12/23 13:13:20;;;;;;;15.88;9.27;;;9.90;99.90;;;;;;5028346;28;20041;-52
2022/12/23 13:16:12;;;;;;;12.98;11.68;;;9.90;99.90;;;;;;5028596;28;20021;-54
2022/12/23 13:18:55;;;;;;;12.63;7.68;;;9.70;99.90;;;;;;5020581;28;20037;-54
2022/12/23 13:21:21;;;;;;;15.93;13.93;;;9.70;99.90;;;;;;5027412;28;20026;-53
2022/12/23 13:24:28;;;;;;;116.75;51.78;;;9.70;99.90;;;;;;5026512;28;20056;-54
2022/12/23 13:27:32;;;;;;;21.08;14.55;;;9.60;99.90;;;;;;5027536;28;20033;-55
2022/12/23 13:30:04;;;;;;;16.65;12.88;;;9.60;99.90;;;;;;5021060;28;20548;-53
2022/12/23 13:32:51;;;;;;;6.05;3.30;;;9.60;99.90;;;;;;5033749;28;20056;-55
2022/12/23 13:35:32;;;;;;;3.38;3.08;;;9.70;99.90;;;;;;5034194;28;20055;-52
2022/12/23 13:38:16;;;;;;;5.78;4.18;;;9.60;99.90;;;;;;5033939;28;20005;-56
2022/12/23 13:41:08;;;;;;;36.03;21.83;;;9.60;99.90;;;;;;5034174;28;20025;-49